createdAt,value
2022-11-18T00:01:21.480Z,9.50
2022-11-18T00:03:49.405Z,7.10
2022-11-18T00:06:20.133Z,7.10
2022-11-18T00:08:47.895Z,7.10
2022-11-18T00:11:40.147Z,7.00
2022-11-18T00:14:23.846Z,7.10
2022-11-18T00:16:59.982Z,7.10
2022-11-18T00:19:38.982Z,8.00
2022-11-18T00:22:10.046Z,7.00
2022-11-18T00:24:36.951Z,7.00
2022-11-18T00:27:06.086Z,7.00
2022-11-18T00:29:33.162Z,7.00
2022-11-18T00:32:00.242Z,9.80
2022-11-18T00:34:27.510Z,7.00
2022-11-18T00:36:54.396Z,6.90
2022-11-18T00:39:21.816Z,7.00
2022-11-18T00:42:08.294Z,7.00
2022-11-18T00:44:35.663Z,7.00
2022-11-18T00:47:03.117Z,7.40
2022-11-18T00:49:30.334Z,9.90
2022-11-18T00:51:57.323Z,7.00
2022-11-18T00:54:24.303Z,6.90
2022-11-18T00:56:51.255Z,7.00
2022-11-18T00:59:18.509Z,7.00
2022-11-18T01:01:45.669Z,7.00
2022-11-18T01:04:12.674Z,7.00
2022-11-18T01:06:39.782Z,7.00
2022-11-18T01:09:07.367Z,7.00
2022-11-18T01:11:52.614Z,7.00
2022-11-18T01:14:19.594Z,7.00
2022-11-18T01:16:51.182Z,7.00
2022-11-18T01:19:19.449Z,7.00
2022-11-18T01:21:46.989Z,6.10
2022-11-18T01:24:14.071Z,7.00
2022-11-18T01:26:41.102Z,7.00
2022-11-18T01:29:08.727Z,7.00
2022-11-18T01:31:35.767Z,9.10
2022-11-18T01:34:03.896Z,7.30
2022-11-18T01:36:31.322Z,7.00
2022-11-18T01:38:58.371Z,7.00
2022-11-18T01:41:27.495Z,7.00
2022-11-18T01:43:58.639Z,8.50
2022-11-18T01:46:29.145Z,9.00
2022-11-18T01:49:08.161Z,7.00
2022-11-18T01:51:44.725Z,7.00
2022-11-18T01:54:36.275Z,8.10
2022-11-18T01:57:13.508Z,7.00
2022-11-18T01:59:42.845Z,7.10
2022-11-18T02:02:13.312Z,7.10
2022-11-18T02:04:45.936Z,7.10
2022-11-18T02:07:14.091Z,7.00
2022-11-18T02:09:42.313Z,7.10
2022-11-18T02:12:09.840Z,7.00
2022-11-18T02:14:42.444Z,7.00
2022-11-18T02:17:37.229Z,7.00
2022-11-18T02:20:20.043Z,7.00
2022-11-18T02:23:48.226Z,7.00
2022-11-18T02:27:00.689Z,7.00
2022-11-18T02:29:56.290Z,7.00
2022-11-18T02:32:39.667Z,7.00
2022-11-18T02:35:18.718Z,6.90
2022-11-18T02:37:53.535Z,9.80
2022-11-18T02:40:26.565Z,7.00
2022-11-18T02:43:09.902Z,6.90
2022-11-18T02:45:39.805Z,6.90
2022-11-18T02:48:10.691Z,6.90
2022-11-18T02:50:41.975Z,6.90
2022-11-18T02:53:13.927Z,6.90
2022-11-18T02:55:42.243Z,6.90
2022-11-18T02:58:10.578Z,4.20
2022-11-18T03:00:37.556Z,7.20
2022-11-18T03:03:31.483Z,6.90
2022-11-18T03:06:23.622Z,6.90
2022-11-18T03:09:15.049Z,6.90
2022-11-18T03:12:38.795Z,6.80
2022-11-18T03:15:32.067Z,6.90
2022-11-18T03:18:33.319Z,6.90
2022-11-18T03:21:30.719Z,6.90
2022-11-18T03:24:26.022Z,6.80
2022-11-18T03:27:07.314Z,6.80
2022-11-18T03:29:41.508Z,9.00
2022-11-18T03:32:21.871Z,6.70
2022-11-18T03:35:00.562Z,9.70
2022-11-18T03:37:30.982Z,6.80
2022-11-18T03:40:25.066Z,9.50
2022-11-18T03:43:19.931Z,6.80
2022-11-18T03:45:52.155Z,6.80
2022-11-18T03:48:25.637Z,6.90
2022-11-18T03:51:02.825Z,6.80
2022-11-18T03:53:34.992Z,6.80
2022-11-18T03:56:17.725Z,6.80
2022-11-18T03:59:07.659Z,6.80
2022-11-18T04:02:00.100Z,6.80
2022-11-18T04:04:27.915Z,6.80
2022-11-18T04:07:03.182Z,8.50
2022-11-18T04:09:45.815Z,6.80
2022-11-18T04:12:16.235Z,6.80
2022-11-18T04:14:45.546Z,6.90
2022-11-18T04:17:16.466Z,6.80
2022-11-18T04:19:43.443Z,6.80
2022-11-18T04:22:11.207Z,6.90
2022-11-18T04:24:38.978Z,6.90
2022-11-18T04:27:07.209Z,6.90
2022-11-18T04:29:34.469Z,6.90
2022-11-18T04:32:03.363Z,6.90
2022-11-18T04:34:30.855Z,7.70
2022-11-18T04:36:58.590Z,6.90
2022-11-18T04:39:25.595Z,7.80
2022-11-18T04:41:58.364Z,6.80
2022-11-18T04:44:33.706Z,9.90
2022-11-18T04:47:04.074Z,6.70
2022-11-18T04:49:31.487Z,6.60
2022-11-18T04:51:58.782Z,6.60
2022-11-18T04:54:26.857Z,8.60
2022-11-18T04:56:54.874Z,6.50
2022-11-18T04:59:29.739Z,6.50
2022-11-18T05:01:57.904Z,6.50
2022-11-18T05:04:28.423Z,6.50
2022-11-18T05:06:55.411Z,6.50
2022-11-18T05:09:27.239Z,6.50
2022-11-18T05:12:16.044Z,7.80
2022-11-18T05:14:48.147Z,6.40
2022-11-18T05:17:16.799Z,6.40
2022-11-18T05:19:43.702Z,6.40
2022-11-18T05:22:10.661Z,6.40
2022-11-18T05:24:37.623Z,6.30
2022-11-18T05:27:04.509Z,6.30
2022-11-18T05:29:31.613Z,6.20
2022-11-18T05:31:58.569Z,6.20
2022-11-18T05:34:25.734Z,6.30
2022-11-18T05:36:52.675Z,6.20
2022-11-18T05:39:20.010Z,6.20
2022-11-18T05:42:05.608Z,6.10
2022-11-18T05:44:32.531Z,6.10
2022-11-18T05:47:00.233Z,6.10
2022-11-18T05:49:27.228Z,6.10
2022-11-18T05:51:54.175Z,6.10
2022-11-18T05:54:21.827Z,6.20
2022-11-18T05:56:49.065Z,6.20
2022-11-18T05:59:16.642Z,6.30
2022-11-18T06:01:58.029Z,6.20
2022-11-18T06:04:40.574Z,6.20
2022-11-18T06:07:20.461Z,6.20
2022-11-18T06:10:00.920Z,6.20
2022-11-18T06:12:38.737Z,6.20
2022-11-18T06:15:15.645Z,8.90
2022-11-18T06:17:50.403Z,6.20
2022-11-18T06:20:21.911Z,6.20
2022-11-18T06:22:51.506Z,6.20
2022-11-18T06:25:18.841Z,6.20
2022-11-18T06:27:46.371Z,6.30
2022-11-18T06:30:14.304Z,9.00
2022-11-18T06:32:41.467Z,6.40
2022-11-18T06:35:09.248Z,6.40
2022-11-18T06:37:36.534Z,6.40
2022-11-18T06:40:03.686Z,6.40
2022-11-18T06:42:50.935Z,6.50
2022-11-18T06:45:17.881Z,6.40
2022-11-18T06:47:44.820Z,6.50
2022-11-18T06:50:12.007Z,6.50
2022-11-18T06:52:39.086Z,6.50
2022-11-18T06:55:08.297Z,7.80
2022-11-18T06:57:35.586Z,6.50
2022-11-18T07:00:03.007Z,6.50
2022-11-18T07:02:30.118Z,6.60
2022-11-18T07:04:57.565Z,6.60
2022-11-18T07:07:24.598Z,6.60
2022-11-18T07:09:51.531Z,6.60
2022-11-18T07:12:18.430Z,6.70
2022-11-18T07:14:45.385Z,6.80
2022-11-18T07:17:12.524Z,6.80
2022-11-18T07:19:40.555Z,8.70
2022-11-18T07:22:08.146Z,6.90
2022-11-18T07:24:35.120Z,6.90
2022-11-18T07:27:02.103Z,9.80
2022-11-18T07:29:29.213Z,6.90
2022-11-18T07:31:56.215Z,6.80
2022-11-18T07:34:23.210Z,6.90
2022-11-18T07:36:50.091Z,9.90
2022-11-18T07:39:17.401Z,6.90
2022-11-18T07:41:44.922Z,7.00
2022-11-18T07:44:12.406Z,7.00
2022-11-18T07:46:39.545Z,8.40
2022-11-18T07:49:08.985Z,9.00
2022-11-18T07:51:38.624Z,7.00
2022-11-18T07:54:11.455Z,7.00
2022-11-18T07:56:38.570Z,7.20
2022-11-18T07:59:06.268Z,7.00
2022-11-18T08:01:33.360Z,7.10
2022-11-18T08:04:26.716Z,7.10
2022-11-18T08:06:53.723Z,7.10
2022-11-18T08:09:20.782Z,7.10
2022-11-18T08:11:47.755Z,7.10
2022-11-18T08:14:14.728Z,7.10
2022-11-18T08:16:41.625Z,8.60
2022-11-18T08:19:08.603Z,7.10
2022-11-18T08:21:35.510Z,7.10
2022-11-18T08:24:02.401Z,9.20
2022-11-18T08:26:29.511Z,7.00
2022-11-18T08:28:57.829Z,7.30
2022-11-18T08:31:27.984Z,9.80
2022-11-18T08:34:15.397Z,7.10
2022-11-18T08:36:42.382Z,7.10
2022-11-18T08:39:11.944Z,7.10
2022-11-18T08:41:42.368Z,7.10
2022-11-18T08:44:14.539Z,7.10
2022-11-18T08:46:45.660Z,7.10
2022-11-18T08:49:12.609Z,7.10
2022-11-18T08:51:39.634Z,7.10
2022-11-18T08:54:06.676Z,7.20
2022-11-18T08:56:34.491Z,7.20
2022-11-18T08:59:01.361Z,7.20
2022-11-18T09:01:28.412Z,7.20
2022-11-18T09:03:55.860Z,7.30
2022-11-18T09:06:26.759Z,7.30
2022-11-18T09:08:54.237Z,7.30
2022-11-18T09:11:26.741Z,7.40
2022-11-18T09:16:46.155Z,10.20
2022-11-18T09:22:01.931Z,7.50
2022-11-18T09:24:28.902Z,7.60
2022-11-18T09:26:55.866Z,7.60
2022-11-18T09:29:25.992Z,7.60
2022-11-18T09:31:54.015Z,7.70
2022-11-18T09:34:21.568Z,9.90
2022-11-18T09:36:48.740Z,7.70
2022-11-18T09:39:15.843Z,7.80
2022-11-18T09:42:06.266Z,8.00
2022-11-18T09:44:57.755Z,7.90
2022-11-18T09:47:35.632Z,7.90
2022-11-18T09:50:33.967Z,9.00
2022-11-18T09:53:07.104Z,7.90
2022-11-18T09:55:39.469Z,9.90
2022-11-18T09:58:07.369Z,8.00
2022-11-18T10:00:34.714Z,10.10
2022-11-18T10:03:17.429Z,8.10
2022-11-18T10:06:14.646Z,8.10
2022-11-18T10:09:21.040Z,8.20
2022-11-18T10:12:32.750Z,8.20
2022-11-18T10:15:33.384Z,8.30
2022-11-18T10:18:26.456Z,8.30
2022-11-18T10:21:25.850Z,8.30
2022-11-18T10:24:04.041Z,8.30
2022-11-18T10:26:35.227Z,8.40
2022-11-18T10:29:03.227Z,8.30
2022-11-18T10:31:30.171Z,9.90
2022-11-18T10:34:02.015Z,8.30
2022-11-18T10:36:34.092Z,8.20
2022-11-18T10:39:16.981Z,8.20
2022-11-18T10:41:52.205Z,8.20
2022-11-18T10:44:31.506Z,8.20
2022-11-18T10:47:31.429Z,8.20
2022-11-18T10:50:01.669Z,8.20
2022-11-18T10:52:30.257Z,8.20
2022-11-18T10:55:14.155Z,8.20
2022-11-18T10:57:43.608Z,8.20
2022-11-18T11:00:36.055Z,8.20
2022-11-18T11:03:23.878Z,8.20
2022-11-18T11:06:31.151Z,8.30
2022-11-18T11:09:00.585Z,8.30
2022-11-18T11:11:43.295Z,9.30
2022-11-18T11:14:26.699Z,8.30
2022-11-18T11:17:19.062Z,8.40
2022-11-18T11:20:15.620Z,8.40
2022-11-18T11:22:43.016Z,8.40
2022-11-18T11:25:20.644Z,10.40
2022-11-18T11:28:20.225Z,8.50
2022-11-18T11:31:03.985Z,8.50
2022-11-18T11:33:52.280Z,8.50
2022-11-18T11:36:24.723Z,8.50
2022-11-18T11:39:06.580Z,9.80
2022-11-18T11:41:59.950Z,8.50
2022-11-18T11:45:05.547Z,8.50
2022-11-18T11:47:57.181Z,8.40
2022-11-18T11:51:01.862Z,8.40
2022-11-18T11:54:11.403Z,8.40
2022-11-18T11:56:55.402Z,8.40
2022-11-18T11:59:31.005Z,8.30
2022-11-18T12:02:47.807Z,8.40
2022-11-18T12:05:36.295Z,8.30
2022-11-18T12:08:28.900Z,8.30
2022-11-18T12:11:27.383Z,8.20
2022-11-18T12:14:22.784Z,8.20
2022-11-18T12:17:01.402Z,8.20
2022-11-18T12:19:28.418Z,9.00
2022-11-18T12:22:00.900Z,8.20
2022-11-18T12:24:44.044Z,8.20
2022-11-18T12:27:30.387Z,8.10
2022-11-18T12:30:03.879Z,8.10
2022-11-18T12:32:42.851Z,8.10
2022-11-18T12:35:13.005Z,8.10
2022-11-18T12:37:45.050Z,8.10
2022-11-18T12:40:36.663Z,8.20
2022-11-18T12:43:28.307Z,8.90
2022-11-18T12:45:57.671Z,8.10
2022-11-18T12:48:27.513Z,8.10
2022-11-18T12:51:26.481Z,11.20
2022-11-18T12:53:54.234Z,8.20
2022-11-18T12:56:28.531Z,10.50
2022-11-18T12:59:00.128Z,8.10
2022-11-18T13:01:35.496Z,8.10
2022-11-18T13:04:17.388Z,8.10
2022-11-18T13:06:45.001Z,8.10
2022-11-18T13:09:19.128Z,8.10
2022-11-18T13:12:00.980Z,8.10
2022-11-18T13:14:53.106Z,8.10
2022-11-18T13:17:55.080Z,10.90
2022-11-18T13:20:35.557Z,8.10
2022-11-18T13:23:33.281Z,8.10
2022-11-18T13:26:13.794Z,8.10
2022-11-18T13:28:52.851Z,8.10
2022-11-18T13:31:54.935Z,8.10
2022-11-18T13:34:26.221Z,8.20
2022-11-18T13:36:55.114Z,8.20
2022-11-18T13:39:29.603Z,8.20
2022-11-18T13:42:15.918Z,8.20
2022-11-18T13:44:57.347Z,8.20
2022-11-18T13:47:41.150Z,11.10
2022-11-18T13:50:11.047Z,8.20
2022-11-18T13:53:02.630Z,9.60
2022-11-18T13:55:35.403Z,8.20
2022-11-18T13:58:06.706Z,10.30
2022-11-18T14:00:35.837Z,9.00
2022-11-18T14:03:14.666Z,8.30
2022-11-18T14:05:41.807Z,8.20
2022-11-18T14:08:46.120Z,8.20
2022-11-18T14:11:13.049Z,8.30
2022-11-18T14:13:52.103Z,10.80
2022-11-18T14:16:18.927Z,8.20
2022-11-18T14:18:51.747Z,8.10
2022-11-18T14:21:34.266Z,8.60
2022-11-18T14:24:02.620Z,8.10
2022-11-18T14:26:37.088Z,8.10
2022-11-18T14:29:22.872Z,11.10
2022-11-18T14:32:16.602Z,11.00
2022-11-18T14:34:43.481Z,8.10
2022-11-18T14:37:13.478Z,8.10
2022-11-18T14:39:41.421Z,8.10
2022-11-18T14:42:13.092Z,8.00
2022-11-18T14:44:40.038Z,8.00
2022-11-18T14:47:26.566Z,8.00
2022-11-18T14:49:53.658Z,8.00
2022-11-18T14:52:20.934Z,8.00
2022-11-18T14:54:47.870Z,8.00
2022-11-18T14:57:17.302Z,8.00
2022-11-18T14:59:44.574Z,10.60
2022-11-18T15:02:17.065Z,7.90
2022-11-18T15:04:44.518Z,7.90
2022-11-18T15:07:22.830Z,7.90
2022-11-18T15:09:50.820Z,7.90
2022-11-18T15:12:17.859Z,7.90
2022-11-18T15:14:44.783Z,7.90
2022-11-18T15:17:13.232Z,7.90
2022-11-18T15:19:41.593Z,7.90
2022-11-18T15:22:09.493Z,7.80
2022-11-18T15:24:36.400Z,8.10
2022-11-18T15:27:05.319Z,7.80
2022-11-18T15:29:32.443Z,7.70
2022-11-18T15:32:00.082Z,7.70
2022-11-18T15:34:27.027Z,7.60
2022-11-18T15:36:53.942Z,7.60
2022-11-18T15:39:20.960Z,7.60
2022-11-18T15:41:47.854Z,7.50
2022-11-18T15:44:14.722Z,10.10
2022-11-18T15:46:41.893Z,7.50
2022-11-18T15:49:14.170Z,7.50
2022-11-18T15:51:41.547Z,8.40
2022-11-18T15:54:08.515Z,7.50
2022-11-18T15:56:35.907Z,7.50
2022-11-18T15:59:13.739Z,7.40
2022-11-18T16:01:44.186Z,7.40
2022-11-18T16:04:13.966Z,7.30
2022-11-18T16:06:43.423Z,7.30
2022-11-18T16:09:12.003Z,7.40
2022-11-18T16:11:57.132Z,7.30
2022-11-18T16:14:24.777Z,7.30
2022-11-18T16:16:54.660Z,7.30
2022-11-18T16:19:24.826Z,7.30
2022-11-18T16:21:56.981Z,7.20
2022-11-18T16:24:27.851Z,7.20
2022-11-18T16:26:55.847Z,8.60
2022-11-18T16:29:24.212Z,7.10
2022-11-18T16:31:52.920Z,9.00
2022-11-18T16:34:26.144Z,7.10
2022-11-18T16:36:56.337Z,7.10
2022-11-18T16:39:26.263Z,7.10
2022-11-18T16:42:07.355Z,7.00
2022-11-18T16:44:36.584Z,8.40
2022-11-18T16:47:12.371Z,7.00
2022-11-18T16:49:41.003Z,7.60
2022-11-18T16:52:08.973Z,9.30
2022-11-18T16:54:41.011Z,7.00
2022-11-18T16:57:11.536Z,6.90
2022-11-18T16:59:38.445Z,6.90
2022-11-18T17:02:06.375Z,8.20
2022-11-18T17:04:36.218Z,6.90
2022-11-18T17:07:03.828Z,7.00
2022-11-18T17:09:31.073Z,6.90
2022-11-18T17:12:03.171Z,7.00
2022-11-18T17:14:30.308Z,6.90
2022-11-18T17:16:59.731Z,6.90
2022-11-18T17:19:26.654Z,6.90
2022-11-18T17:21:53.652Z,6.90
2022-11-18T17:24:23.111Z,6.90
2022-11-18T17:26:52.088Z,6.90
2022-11-18T17:29:19.511Z,6.80
2022-11-18T17:31:46.806Z,6.90
2022-11-18T17:34:15.519Z,6.70
2022-11-18T17:36:43.237Z,6.70
2022-11-18T17:39:12.031Z,6.70
2022-11-18T17:41:57.771Z,7.70
2022-11-18T17:44:24.894Z,6.70
2022-11-18T17:46:52.073Z,6.70
2022-11-18T17:49:21.214Z,6.70
2022-11-18T17:51:48.516Z,8.30
2022-11-18T17:54:15.634Z,7.00
2022-11-18T17:56:42.974Z,6.60
2022-11-18T17:59:09.973Z,6.60
2022-11-18T18:01:37.013Z,6.60
2022-11-18T18:04:04.094Z,6.60
2022-11-18T18:06:31.116Z,6.60
2022-11-18T18:08:58.986Z,6.60
2022-11-18T18:11:27.263Z,6.60
2022-11-18T18:14:13.157Z,6.60
2022-11-18T18:16:49.205Z,8.80
2022-11-18T18:19:21.733Z,6.60
2022-11-18T18:21:49.358Z,6.50
2022-11-18T18:24:18.354Z,6.50
2022-11-18T18:26:45.917Z,9.10
2022-11-18T18:29:13.097Z,6.50
2022-11-18T18:31:40.156Z,6.50
2022-11-18T18:34:07.187Z,6.40
2022-11-18T18:36:34.142Z,8.30
2022-11-18T18:39:02.201Z,6.50
2022-11-18T18:41:29.418Z,6.50
2022-11-18T18:43:56.699Z,9.40
2022-11-18T18:46:29.816Z,6.40
2022-11-18T18:49:08.438Z,6.30
2022-11-18T18:51:39.562Z,6.30
2022-11-18T18:54:09.481Z,6.20
2022-11-18T18:56:36.696Z,8.50
2022-11-18T18:59:03.668Z,6.20
2022-11-18T19:01:31.197Z,6.20
2022-11-18T19:04:02.309Z,8.60
2022-11-18T19:09:26.733Z,6.20
2022-11-18T19:12:12.870Z,6.10
2022-11-18T19:14:40.090Z,8.80
2022-11-18T19:17:11.333Z,6.20
2022-11-18T19:19:59.357Z,6.10
2022-11-18T19:22:29.564Z,6.20
2022-11-18T19:24:56.746Z,6.10
2022-11-18T19:27:23.928Z,6.10
2022-11-18T19:29:51.849Z,6.10
2022-11-18T19:32:18.993Z,6.10
2022-11-18T19:34:45.948Z,6.10
2022-11-18T19:37:13.596Z,6.10
2022-11-18T19:39:40.506Z,6.10
2022-11-18T19:42:07.715Z,6.10
2022-11-18T19:44:34.658Z,6.10
2022-11-18T19:47:01.513Z,8.00
2022-11-18T19:49:28.338Z,6.10
2022-11-18T19:51:55.269Z,6.10
2022-11-18T19:54:22.222Z,6.10
2022-11-18T19:56:49.101Z,6.10
2022-11-18T19:59:16.572Z,6.10
2022-11-18T20:01:43.749Z,6.10
2022-11-18T20:04:10.762Z,6.00
2022-11-18T20:06:38.096Z,7.70
2022-11-18T20:09:10.080Z,5.90
2022-11-18T20:11:38.272Z,5.90
2022-11-18T20:14:06.504Z,5.90
2022-11-18T20:16:33.720Z,8.50
2022-11-18T20:19:09.299Z,5.80
2022-11-18T20:21:38.975Z,5.90
2022-11-18T20:24:07.543Z,5.80
2022-11-18T20:26:38.243Z,5.80
2022-11-18T20:29:07.421Z,5.80
2022-11-18T20:31:35.556Z,5.70
2022-11-18T20:34:04.078Z,8.30
2022-11-18T20:36:37.101Z,8.40
2022-11-18T20:39:15.346Z,5.70
2022-11-18T20:41:42.973Z,7.50
2022-11-18T20:44:09.909Z,5.60
2022-11-18T20:46:36.825Z,5.60
2022-11-18T20:49:03.766Z,5.60
2022-11-18T20:51:30.612Z,5.60
2022-11-18T20:53:59.803Z,8.40
2022-11-18T20:56:28.254Z,5.60
2022-11-18T20:58:57.985Z,5.60
2022-11-18T21:01:29.675Z,5.60
2022-11-18T21:04:02.351Z,5.50
2022-11-18T21:06:33.987Z,5.80
2022-11-18T21:09:04.298Z,8.40
2022-11-18T21:11:34.856Z,6.50
2022-11-18T21:14:23.344Z,5.40
2022-11-18T21:17:01.901Z,5.40
2022-11-18T21:19:29.774Z,5.40
2022-11-18T21:21:57.960Z,5.30
2022-11-18T21:24:28.090Z,7.60
2022-11-18T21:26:57.884Z,8.50
2022-11-18T21:29:27.622Z,5.20
2022-11-18T21:31:55.100Z,5.10
2022-11-18T21:34:22.240Z,5.10
2022-11-18T21:36:54.365Z,5.10
2022-11-18T21:39:24.229Z,5.10
2022-11-18T21:41:55.642Z,5.20
2022-11-18T21:44:25.119Z,5.10
2022-11-18T21:46:52.165Z,5.20
2022-11-18T21:49:19.436Z,7.30
2022-11-18T21:51:46.609Z,5.00
2022-11-18T21:54:15.954Z,5.00
2022-11-18T21:56:43.085Z,4.90
2022-11-18T21:59:10.069Z,5.00
2022-11-18T22:01:36.988Z,5.00
2022-11-18T22:04:05.692Z,5.00
2022-11-18T22:06:34.336Z,5.00
2022-11-18T22:09:03.264Z,5.00
2022-11-18T22:11:30.857Z,5.00
2022-11-18T22:13:58.029Z,4.90
2022-11-18T22:16:26.839Z,4.90
2022-11-18T22:19:01.412Z,4.90
2022-11-18T22:21:32.744Z,5.00
2022-11-18T22:24:01.043Z,7.40
2022-11-18T22:26:29.079Z,4.90
2022-11-18T22:28:58.134Z,5.10
2022-11-18T22:31:27.854Z,4.80
2022-11-18T22:33:56.167Z,4.80
2022-11-18T22:36:25.915Z,4.80
2022-11-18T22:38:54.662Z,4.80
2022-11-18T22:41:45.071Z,4.70
2022-11-18T22:44:14.803Z,4.60
2022-11-18T22:46:44.232Z,4.60
2022-11-18T22:49:12.394Z,4.60
2022-11-18T22:51:40.482Z,4.50
2022-11-18T22:54:38.458Z,4.60
2022-11-18T22:56:55.671Z,4.60
2022-11-18T22:59:23.522Z,4.40
2022-11-18T23:01:51.750Z,4.50
2022-11-18T23:04:18.818Z,4.40
2022-11-18T23:06:45.754Z,4.40
2022-11-18T23:09:12.707Z,4.40
2022-11-18T23:11:57.913Z,4.30
2022-11-18T23:14:24.859Z,4.30
2022-11-18T23:16:51.805Z,4.20
2022-11-18T23:19:19.316Z,4.20
2022-11-18T23:21:46.975Z,4.20
2022-11-18T23:24:16.970Z,4.10
2022-11-18T23:26:44.610Z,7.10
2022-11-18T23:29:13.196Z,4.00
2022-11-18T23:31:42.892Z,7.00
2022-11-18T23:34:12.363Z,4.00
2022-11-18T23:36:39.727Z,4.00
2022-11-18T23:39:06.971Z,3.90
2022-11-18T23:41:34.264Z,3.90
2022-11-18T23:44:01.168Z,3.80
2022-11-18T23:46:28.053Z,3.70
2022-11-18T23:48:55.244Z,3.60
2022-11-18T23:51:24.109Z,3.70
2022-11-18T23:53:56.832Z,3.60
2022-11-18T23:56:27.476Z,3.60
2022-11-18T23:58:56.414Z,3.60
